sensor_id;sensor_type;location;lat;lon;timestamp;P1;durP1;ratioP1;P2;durP2;ratioP2
19521;SDS011;9905;52.126;5.596;2023-01-26T00:01:48;76.30;;;38.20;;
19521;SDS011;9905;52.126;5.596;2023-01-26T00:04:15;89.13;;;37.20;;
19521;SDS011;9905;52.126;5.596;2023-01-26T00:06:42;76.17;;;38.20;;
19521;SDS011;9905;52.126;5.596;2023-01-26T00:09:10;84.70;;;38.90;;
19521;SDS011;9905;52.126;5.596;2023-01-26T00:11:38;78.83;;;36.73;;
19521;SDS011;9905;52.126;5.596;2023-01-26T00:14:05;84.63;;;37.63;;
19521;SDS011;9905;52.126;5.596;2023-01-26T00:16:32;75.43;;;36.20;;
19521;SDS011;9905;52.126;5.596;2023-01-26T00:19:00;76.50;;;36.77;;
19521;SDS011;9905;52.126;5.596;2023-01-26T00:21:26;78.67;;;38.37;;
19521;SDS011;9905;52.126;5.596;2023-01-26T00:23:53;72.93;;;40.77;;
19521;SDS011;9905;52.126;5.596;2023-01-26T00:26:21;79.20;;;40.63;;
19521;SDS011;9905;52.126;5.596;2023-01-26T00:28:49;76.20;;;38.37;;
19521;SDS011;9905;52.126;5.596;2023-01-26T00:31:17;78.40;;;37.80;;
19521;SDS011;9905;52.126;5.596;2023-01-26T00:33:45;71.30;;;35.80;;
19521;SDS011;9905;52.126;5.596;2023-01-26T00:36:13;73.07;;;37.47;;
19521;SDS011;9905;52.126;5.596;2023-01-26T00:38:40;75.83;;;37.30;;
19521;SDS011;9905;52.126;5.596;2023-01-26T00:41:07;73.60;;;36.87;;
19521;SDS011;9905;52.126;5.596;2023-01-26T00:43:54;83.57;;;37.97;;
19521;SDS011;9905;52.126;5.596;2023-01-26T00:46:21;75.03;;;37.17;;
19521;SDS011;9905;52.126;5.596;2023-01-26T00:48:48;72.20;;;36.33;;
19521;SDS011;9905;52.126;5.596;2023-01-26T00:51:16;70.40;;;37.53;;
19521;SDS011;9905;52.126;5.596;2023-01-26T00:53:43;72.17;;;37.90;;
19521;SDS011;9905;52.126;5.596;2023-01-26T00:56:09;64.20;;;37.10;;
19521;SDS011;9905;52.126;5.596;2023-01-26T00:58:38;77.23;;;36.43;;
19521;SDS011;9905;52.126;5.596;2023-01-26T01:01:06;73.20;;;35.67;;
19521;SDS011;9905;52.126;5.596;2023-01-26T01:03:33;65.20;;;34.60;;
19521;SDS011;9905;52.126;5.596;2023-01-26T01:05:59;66.93;;;36.90;;
19521;SDS011;9905;52.126;5.596;2023-01-26T01:08:27;69.73;;;34.27;;
19521;SDS011;9905;52.126;5.596;2023-01-26T01:11:01;68.33;;;34.90;;
19521;SDS011;9905;52.126;5.596;2023-01-26T01:13:29;68.90;;;35.30;;
19521;SDS011;9905;52.126;5.596;2023-01-26T01:15:55;69.30;;;35.93;;
19521;SDS011;9905;52.126;5.596;2023-01-26T01:18:22;63.87;;;36.83;;
19521;SDS011;9905;52.126;5.596;2023-01-26T01:20:49;71.13;;;35.60;;
19521;SDS011;9905;52.126;5.596;2023-01-26T01:23:16;68.73;;;35.07;;
19521;SDS011;9905;52.126;5.596;2023-01-26T01:25:44;68.93;;;35.17;;
19521;SDS011;9905;52.126;5.596;2023-01-26T01:28:11;65.03;;;34.90;;
19521;SDS011;9905;52.126;5.596;2023-01-26T01:30:38;68.63;;;35.53;;
19521;SDS011;9905;52.126;5.596;2023-01-26T01:33:05;64.87;;;34.60;;
19521;SDS011;9905;52.126;5.596;2023-01-26T01:35:32;67.23;;;35.40;;
19521;SDS011;9905;52.126;5.596;2023-01-26T01:37:59;68.77;;;35.77;;
19521;SDS011;9905;52.126;5.596;2023-01-26T01:40:27;61.00;;;34.10;;
19521;SDS011;9905;52.126;5.596;2023-01-26T01:42:55;61.30;;;35.80;;
19521;SDS011;9905;52.126;5.596;2023-01-26T01:45:41;63.07;;;35.57;;
19521;SDS011;9905;52.126;5.596;2023-01-26T01:48:12;64.37;;;34.90;;
19521;SDS011;9905;52.126;5.596;2023-01-26T01:50:50;61.83;;;34.03;;
19521;SDS011;9905;52.126;5.596;2023-01-26T01:53:20;50.60;;;30.90;;
19521;SDS011;9905;52.126;5.596;2023-01-26T01:55:53;61.47;;;34.00;;
19521;SDS011;9905;52.126;5.596;2023-01-26T01:58:23;62.27;;;33.73;;
19521;SDS011;9905;52.126;5.596;2023-01-26T02:00:51;58.40;;;33.47;;
19521;SDS011;9905;52.126;5.596;2023-01-26T02:03:19;56.30;;;31.40;;
19521;SDS011;9905;52.126;5.596;2023-01-26T02:05:51;54.77;;;33.07;;
19521;SDS011;9905;52.126;5.596;2023-01-26T02:08:21;52.63;;;34.07;;
19521;SDS011;9905;52.126;5.596;2023-01-26T02:10:52;57.83;;;32.73;;
19521;SDS011;9905;52.126;5.596;2023-01-26T02:13:20;57.93;;;33.17;;
19521;SDS011;9905;52.126;5.596;2023-01-26T02:15:51;54.53;;;35.33;;
19521;SDS011;9905;52.126;5.596;2023-01-26T02:18:18;47.40;;;31.80;;
19521;SDS011;9905;52.126;5.596;2023-01-26T02:20:45;56.83;;;32.53;;
19521;SDS011;9905;52.126;5.596;2023-01-26T02:23:18;53.23;;;32.50;;
19521;SDS011;9905;52.126;5.596;2023-01-26T02:25:59;54.93;;;33.47;;
19521;SDS011;9905;52.126;5.596;2023-01-26T02:28:33;51.63;;;31.13;;
19521;SDS011;9905;52.126;5.596;2023-01-26T02:30:59;53.27;;;30.33;;
19521;SDS011;9905;52.126;5.596;2023-01-26T02:33:27;62.40;;;33.03;;
19521;SDS011;9905;52.126;5.596;2023-01-26T02:35:56;53.40;;;32.03;;
19521;SDS011;9905;52.126;5.596;2023-01-26T02:38:24;50.50;;;31.63;;
19521;SDS011;9905;52.126;5.596;2023-01-26T02:40:55;50.90;;;31.20;;
19521;SDS011;9905;52.126;5.596;2023-01-26T02:43:25;45.93;;;31.87;;
19521;SDS011;9905;52.126;5.596;2023-01-26T02:45:52;49.63;;;31.03;;
19521;SDS011;9905;52.126;5.596;2023-01-26T02:48:19;47.17;;;31.70;;
19521;SDS011;9905;52.126;5.596;2023-01-26T02:51:00;47.83;;;31.50;;
19521;SDS011;9905;52.126;5.596;2023-01-26T02:53:27;49.00;;;32.43;;
19521;SDS011;9905;52.126;5.596;2023-01-26T02:55:54;47.97;;;29.13;;
19521;SDS011;9905;52.126;5.596;2023-01-26T02:58:20;47.77;;;30.83;;
19521;SDS011;9905;52.126;5.596;2023-01-26T03:00:48;56.87;;;34.50;;
19521;SDS011;9905;52.126;5.596;2023-01-26T03:03:15;49.60;;;29.77;;
19521;SDS011;9905;52.126;5.596;2023-01-26T03:05:44;47.73;;;31.53;;
19521;SDS011;9905;52.126;5.596;2023-01-26T03:08:12;54.93;;;32.17;;
19521;SDS011;9905;52.126;5.596;2023-01-26T03:10:38;52.33;;;31.33;;
19521;SDS011;9905;52.126;5.596;2023-01-26T03:13:05;49.33;;;30.57;;
19521;SDS011;9905;52.126;5.596;2023-01-26T03:15:32;47.63;;;30.50;;
19521;SDS011;9905;52.126;5.596;2023-01-26T03:18:09;40.43;;;29.67;;
19521;SDS011;9905;52.126;5.596;2023-01-26T03:20:55;47.97;;;29.20;;
19521;SDS011;9905;52.126;5.596;2023-01-26T03:23:40;43.67;;;28.63;;
19521;SDS011;9905;52.126;5.596;2023-01-26T03:26:24;48.53;;;30.93;;
19521;SDS011;9905;52.126;5.596;2023-01-26T03:29:08;40.90;;;30.63;;
19521;SDS011;9905;52.126;5.596;2023-01-26T03:31:35;52.80;;;30.97;;
19521;SDS011;9905;52.126;5.596;2023-01-26T03:34:03;46.97;;;31.03;;
19521;SDS011;9905;52.126;5.596;2023-01-26T03:36:30;46.13;;;30.43;;
19521;SDS011;9905;52.126;5.596;2023-01-26T03:38:57;46.10;;;29.77;;
19521;SDS011;9905;52.126;5.596;2023-01-26T03:41:23;41.90;;;29.77;;
19521;SDS011;9905;52.126;5.596;2023-01-26T03:44:07;40.63;;;27.93;;
19521;SDS011;9905;52.126;5.596;2023-01-26T03:46:52;44.83;;;27.73;;
19521;SDS011;9905;52.126;5.596;2023-01-26T03:49:37;44.10;;;28.73;;
19521;SDS011;9905;52.126;5.596;2023-01-26T03:52:21;37.27;;;28.70;;
19521;SDS011;9905;52.126;5.596;2023-01-26T03:55:06;44.00;;;30.00;;
19521;SDS011;9905;52.126;5.596;2023-01-26T03:57:50;38.97;;;29.50;;
19521;SDS011;9905;52.126;5.596;2023-01-26T04:00:17;42.17;;;28.60;;
19521;SDS011;9905;52.126;5.596;2023-01-26T04:02:45;39.77;;;29.43;;
19521;SDS011;9905;52.126;5.596;2023-01-26T04:05:32;36.43;;;27.23;;
19521;SDS011;9905;52.126;5.596;2023-01-26T04:08:16;42.60;;;29.47;;
19521;SDS011;9905;52.126;5.596;2023-01-26T04:10:45;39.53;;;27.97;;
19521;SDS011;9905;52.126;5.596;2023-01-26T04:13:12;32.10;;;27.17;;
19521;SDS011;9905;52.126;5.596;2023-01-26T04:15:56;40.00;;;28.57;;
19521;SDS011;9905;52.126;5.596;2023-01-26T04:18:41;40.53;;;29.03;;
19521;SDS011;9905;52.126;5.596;2023-01-26T04:21:26;36.00;;;28.87;;
19521;SDS011;9905;52.126;5.596;2023-01-26T04:23:54;30.93;;;26.67;;
19521;SDS011;9905;52.126;5.596;2023-01-26T04:26:22;37.60;;;26.53;;
19521;SDS011;9905;52.126;5.596;2023-01-26T04:28:49;35.27;;;27.00;;
19521;SDS011;9905;52.126;5.596;2023-01-26T04:31:16;37.37;;;26.27;;
19521;SDS011;9905;52.126;5.596;2023-01-26T04:33:43;30.77;;;26.80;;
19521;SDS011;9905;52.126;5.596;2023-01-26T04:36:10;36.87;;;27.47;;
19521;SDS011;9905;52.126;5.596;2023-01-26T04:38:38;32.00;;;28.03;;
19521;SDS011;9905;52.126;5.596;2023-01-26T04:41:05;36.93;;;27.77;;
19521;SDS011;9905;52.126;5.596;2023-01-26T04:43:31;39.43;;;27.77;;
19521;SDS011;9905;52.126;5.596;2023-01-26T04:45:58;35.37;;;26.33;;
19521;SDS011;9905;52.126;5.596;2023-01-26T04:48:26;36.47;;;27.37;;
19521;SDS011;9905;52.126;5.596;2023-01-26T04:50:54;31.53;;;26.17;;
19521;SDS011;9905;52.126;5.596;2023-01-26T04:53:21;30.00;;;25.93;;
19521;SDS011;9905;52.126;5.596;2023-01-26T04:55:50;33.07;;;25.97;;
19521;SDS011;9905;52.126;5.596;2023-01-26T04:58:16;32.03;;;26.70;;
19521;SDS011;9905;52.126;5.596;2023-01-26T05:00:48;31.03;;;25.97;;
19521;SDS011;9905;52.126;5.596;2023-01-26T05:03:16;34.67;;;27.30;;
19521;SDS011;9905;52.126;5.596;2023-01-26T05:05:43;29.20;;;24.53;;
19521;SDS011;9905;52.126;5.596;2023-01-26T05:08:13;37.53;;;27.93;;
19521;SDS011;9905;52.126;5.596;2023-01-26T05:10:39;32.40;;;26.07;;
19521;SDS011;9905;52.126;5.596;2023-01-26T05:13:08;36.53;;;26.27;;
19521;SDS011;9905;52.126;5.596;2023-01-26T05:15:34;32.33;;;25.07;;
19521;SDS011;9905;52.126;5.596;2023-01-26T05:18:01;35.73;;;25.50;;
19521;SDS011;9905;52.126;5.596;2023-01-26T05:20:28;33.17;;;28.03;;
19521;SDS011;9905;52.126;5.596;2023-01-26T05:22:55;34.47;;;26.23;;
19521;SDS011;9905;52.126;5.596;2023-01-26T05:25:22;34.33;;;27.47;;
19521;SDS011;9905;52.126;5.596;2023-01-26T05:27:49;32.20;;;28.00;;
19521;SDS011;9905;52.126;5.596;2023-01-26T05:30:18;35.87;;;26.77;;
19521;SDS011;9905;52.126;5.596;2023-01-26T05:32:45;32.40;;;27.23;;
19521;SDS011;9905;52.126;5.596;2023-01-26T05:35:12;33.23;;;24.97;;
19521;SDS011;9905;52.126;5.596;2023-01-26T05:37:39;36.97;;;25.50;;
19521;SDS011;9905;52.126;5.596;2023-01-26T05:40:07;39.50;;;27.27;;
19521;SDS011;9905;52.126;5.596;2023-01-26T05:42:35;35.20;;;26.67;;
19521;SDS011;9905;52.126;5.596;2023-01-26T05:45:02;32.03;;;25.90;;
19521;SDS011;9905;52.126;5.596;2023-01-26T05:47:30;34.93;;;25.40;;
19521;SDS011;9905;52.126;5.596;2023-01-26T05:49:57;35.47;;;23.90;;
19521;SDS011;9905;52.126;5.596;2023-01-26T05:52:24;37.77;;;25.67;;
19521;SDS011;9905;52.126;5.596;2023-01-26T05:54:51;38.20;;;25.97;;
19521;SDS011;9905;52.126;5.596;2023-01-26T05:57:17;37.80;;;29.17;;
19521;SDS011;9905;52.126;5.596;2023-01-26T05:59:44;35.87;;;26.37;;
19521;SDS011;9905;52.126;5.596;2023-01-26T06:02:11;35.57;;;26.43;;
19521;SDS011;9905;52.126;5.596;2023-01-26T06:04:39;37.10;;;25.93;;
19521;SDS011;9905;52.126;5.596;2023-01-26T06:07:06;29.00;;;25.33;;
19521;SDS011;9905;52.126;5.596;2023-01-26T06:09:33;31.00;;;26.63;;
19521;SDS011;9905;52.126;5.596;2023-01-26T06:11:59;37.17;;;25.53;;
19521;SDS011;9905;52.126;5.596;2023-01-26T06:14:26;31.67;;;25.30;;
19521;SDS011;9905;52.126;5.596;2023-01-26T06:16:53;42.87;;;28.40;;
19521;SDS011;9905;52.126;5.596;2023-01-26T06:19:20;37.93;;;27.97;;
19521;SDS011;9905;52.126;5.596;2023-01-26T06:21:48;36.67;;;27.03;;
19521;SDS011;9905;52.126;5.596;2023-01-26T06:24:17;37.90;;;27.47;;
19521;SDS011;9905;52.126;5.596;2023-01-26T06:26:45;38.43;;;26.93;;
19521;SDS011;9905;52.126;5.596;2023-01-26T06:29:12;36.20;;;26.70;;
19521;SDS011;9905;52.126;5.596;2023-01-26T06:31:39;42.40;;;27.17;;
19521;SDS011;9905;52.126;5.596;2023-01-26T06:34:06;41.80;;;28.33;;
19521;SDS011;9905;52.126;5.596;2023-01-26T06:36:33;37.17;;;29.03;;
19521;SDS011;9905;52.126;5.596;2023-01-26T06:39:01;38.37;;;26.83;;
19521;SDS011;9905;52.126;5.596;2023-01-26T06:41:28;40.43;;;27.70;;
19521;SDS011;9905;52.126;5.596;2023-01-26T06:43:55;42.33;;;28.60;;
19521;SDS011;9905;52.126;5.596;2023-01-26T06:46:21;39.27;;;27.47;;
19521;SDS011;9905;52.126;5.596;2023-01-26T06:48:48;43.90;;;29.80;;
19521;SDS011;9905;52.126;5.596;2023-01-26T06:51:34;42.10;;;26.10;;
19521;SDS011;9905;52.126;5.596;2023-01-26T06:54:20;41.60;;;29.33;;
19521;SDS011;9905;52.126;5.596;2023-01-26T06:56:47;35.13;;;25.93;;
19521;SDS011;9905;52.126;5.596;2023-01-26T06:59:14;41.27;;;27.30;;
19521;SDS011;9905;52.126;5.596;2023-01-26T07:01:42;37.27;;;28.57;;
19521;SDS011;9905;52.126;5.596;2023-01-26T07:04:11;46.43;;;27.87;;
19521;SDS011;9905;52.126;5.596;2023-01-26T07:06:38;46.63;;;30.83;;
19521;SDS011;9905;52.126;5.596;2023-01-26T07:09:05;39.37;;;29.27;;
19521;SDS011;9905;52.126;5.596;2023-01-26T07:11:33;48.13;;;29.77;;
19521;SDS011;9905;52.126;5.596;2023-01-26T07:13:59;48.30;;;29.40;;
19521;SDS011;9905;52.126;5.596;2023-01-26T07:16:26;44.07;;;29.77;;
19521;SDS011;9905;52.126;5.596;2023-01-26T07:18:53;41.27;;;28.80;;
19521;SDS011;9905;52.126;5.596;2023-01-26T07:21:21;37.83;;;28.20;;
19521;SDS011;9905;52.126;5.596;2023-01-26T07:23:48;47.90;;;31.97;;
19521;SDS011;9905;52.126;5.596;2023-01-26T07:26:15;42.90;;;30.87;;
19521;SDS011;9905;52.126;5.596;2023-01-26T07:28:43;41.33;;;29.67;;
19521;SDS011;9905;52.126;5.596;2023-01-26T07:31:10;47.43;;;30.53;;
19521;SDS011;9905;52.126;5.596;2023-01-26T07:33:37;42.80;;;29.30;;
19521;SDS011;9905;52.126;5.596;2023-01-26T07:36:04;48.57;;;31.03;;
19521;SDS011;9905;52.126;5.596;2023-01-26T07:38:32;48.27;;;30.97;;
19521;SDS011;9905;52.126;5.596;2023-01-26T07:41:03;39.63;;;28.00;;
19521;SDS011;9905;52.126;5.596;2023-01-26T07:43:32;48.20;;;31.03;;
19521;SDS011;9905;52.126;5.596;2023-01-26T07:46:00;56.20;;;33.00;;
19521;SDS011;9905;52.126;5.596;2023-01-26T07:48:27;49.50;;;31.17;;
19521;SDS011;9905;52.126;5.596;2023-01-26T07:50:56;55.53;;;32.80;;
19521;SDS011;9905;52.126;5.596;2023-01-26T07:53:24;53.37;;;33.53;;
19521;SDS011;9905;52.126;5.596;2023-01-26T07:55:53;46.73;;;32.27;;
19521;SDS011;9905;52.126;5.596;2023-01-26T07:58:21;41.73;;;30.27;;
19521;SDS011;9905;52.126;5.596;2023-01-26T08:00:48;57.30;;;31.03;;
19521;SDS011;9905;52.126;5.596;2023-01-26T08:03:16;45.20;;;32.60;;
19521;SDS011;9905;52.126;5.596;2023-01-26T08:05:42;51.40;;;32.57;;
19521;SDS011;9905;52.126;5.596;2023-01-26T08:08:11;50.57;;;32.30;;
19521;SDS011;9905;52.126;5.596;2023-01-26T08:10:37;49.67;;;34.60;;
19521;SDS011;9905;52.126;5.596;2023-01-26T08:13:04;49.17;;;33.33;;
19521;SDS011;9905;52.126;5.596;2023-01-26T08:15:31;51.30;;;34.27;;
19521;SDS011;9905;52.126;5.596;2023-01-26T08:17:58;47.77;;;33.53;;
19521;SDS011;9905;52.126;5.596;2023-01-26T08:20:29;50.73;;;34.70;;
19521;SDS011;9905;52.126;5.596;2023-01-26T08:22:55;53.17;;;36.67;;
19521;SDS011;9905;52.126;5.596;2023-01-26T08:25:22;49.57;;;32.90;;
19521;SDS011;9905;52.126;5.596;2023-01-26T08:27:49;58.53;;;35.47;;
19521;SDS011;9905;52.126;5.596;2023-01-26T08:30:16;41.53;;;31.77;;
19521;SDS011;9905;52.126;5.596;2023-01-26T08:32:43;45.43;;;31.57;;
19521;SDS011;9905;52.126;5.596;2023-01-26T08:35:09;49.23;;;34.53;;
19521;SDS011;9905;52.126;5.596;2023-01-26T08:37:37;51.17;;;32.93;;
19521;SDS011;9905;52.126;5.596;2023-01-26T08:40:05;47.10;;;33.20;;
19521;SDS011;9905;52.126;5.596;2023-01-26T08:42:33;47.23;;;34.23;;
19521;SDS011;9905;52.126;5.596;2023-01-26T08:44:59;48.17;;;34.50;;
19521;SDS011;9905;52.126;5.596;2023-01-26T08:47:26;54.13;;;32.80;;
19521;SDS011;9905;52.126;5.596;2023-01-26T08:49:53;55.50;;;35.00;;
19521;SDS011;9905;52.126;5.596;2023-01-26T08:52:19;53.03;;;36.60;;
19521;SDS011;9905;52.126;5.596;2023-01-26T08:54:47;48.07;;;34.97;;
19521;SDS011;9905;52.126;5.596;2023-01-26T08:57:14;50.87;;;33.83;;
19521;SDS011;9905;52.126;5.596;2023-01-26T08:59:41;54.47;;;37.00;;
19521;SDS011;9905;52.126;5.596;2023-01-26T09:02:08;56.67;;;34.73;;
19521;SDS011;9905;52.126;5.596;2023-01-26T09:04:35;55.50;;;34.33;;
19521;SDS011;9905;52.126;5.596;2023-01-26T09:07:02;61.47;;;35.47;;
19521;SDS011;9905;52.126;5.596;2023-01-26T09:09:29;47.90;;;34.83;;
19521;SDS011;9905;52.126;5.596;2023-01-26T09:11:58;50.53;;;33.80;;
19521;SDS011;9905;52.126;5.596;2023-01-26T09:14:24;52.83;;;35.43;;
19521;SDS011;9905;52.126;5.596;2023-01-26T09:16:51;51.90;;;36.87;;
19521;SDS011;9905;52.126;5.596;2023-01-26T09:19:18;54.83;;;35.40;;
19521;SDS011;9905;52.126;5.596;2023-01-26T09:21:45;53.37;;;36.50;;
19521;SDS011;9905;52.126;5.596;2023-01-26T09:24:11;51.03;;;36.13;;
19521;SDS011;9905;52.126;5.596;2023-01-26T09:26:38;41.37;;;32.63;;
19521;SDS011;9905;52.126;5.596;2023-01-26T09:29:06;53.30;;;34.43;;
19521;SDS011;9905;52.126;5.596;2023-01-26T09:31:33;50.17;;;35.33;;
19521;SDS011;9905;52.126;5.596;2023-01-26T09:33:59;49.57;;;34.97;;
19521;SDS011;9905;52.126;5.596;2023-01-26T09:36:26;52.07;;;35.27;;
19521;SDS011;9905;52.126;5.596;2023-01-26T09:38:53;43.93;;;35.17;;
19521;SDS011;9905;52.126;5.596;2023-01-26T09:41:25;53.73;;;35.67;;
19521;SDS011;9905;52.126;5.596;2023-01-26T09:44:12;51.80;;;37.40;;
19521;SDS011;9905;52.126;5.596;2023-01-26T09:46:45;47.07;;;33.93;;
19521;SDS011;9905;52.126;5.596;2023-01-26T09:49:23;50.10;;;35.97;;
19521;SDS011;9905;52.126;5.596;2023-01-26T09:51:57;46.33;;;32.72;;
19521;SDS011;9905;52.126;5.596;2023-01-26T09:54:30;46.67;;;35.07;;
19521;SDS011;9905;52.126;5.596;2023-01-26T09:56:59;42.07;;;33.07;;
19521;SDS011;9905;52.126;5.596;2023-01-26T09:59:37;42.08;;;34.58;;
19521;SDS011;9905;52.126;5.596;2023-01-26T10:02:15;45.77;;;32.63;;
19521;SDS011;9905;52.126;5.596;2023-01-26T10:04:48;49.47;;;33.70;;
19521;SDS011;9905;52.126;5.596;2023-01-26T10:07:20;39.05;;;33.58;;
19521;SDS011;9905;52.126;5.596;2023-01-26T10:09:47;43.67;;;31.97;;
19521;SDS011;9905;52.126;5.596;2023-01-26T10:12:17;44.22;;;34.25;;
19521;SDS011;9905;52.126;5.596;2023-01-26T10:14:50;40.15;;;34.08;;
19521;SDS011;9905;52.126;5.596;2023-01-26T10:17:23;39.38;;;31.30;;
19521;SDS011;9905;52.126;5.596;2023-01-26T10:19:54;43.28;;;33.25;;
19521;SDS011;9905;52.126;5.596;2023-01-26T10:22:27;39.33;;;31.15;;
19521;SDS011;9905;52.126;5.596;2023-01-26T10:25:00;35.42;;;31.73;;
19521;SDS011;9905;52.126;5.596;2023-01-26T10:27:27;46.90;;;33.17;;
19521;SDS011;9905;52.126;5.596;2023-01-26T10:29:55;48.28;;;33.88;;
19521;SDS011;9905;52.126;5.596;2023-01-26T10:32:22;42.30;;;32.90;;
19521;SDS011;9905;52.126;5.596;2023-01-26T10:34:49;39.67;;;31.50;;
19521;SDS011;9905;52.126;5.596;2023-01-26T10:37:21;35.47;;;31.77;;
19521;SDS011;9905;52.126;5.596;2023-01-26T10:39:55;37.38;;;31.33;;
19521;SDS011;9905;52.126;5.596;2023-01-26T10:42:24;36.58;;;32.72;;
19521;SDS011;9905;52.126;5.596;2023-01-26T10:44:54;34.65;;;30.92;;
19521;SDS011;9905;52.126;5.596;2023-01-26T10:47:23;35.40;;;32.05;;
19521;SDS011;9905;52.126;5.596;2023-01-26T10:49:50;34.05;;;30.50;;
19521;SDS011;9905;52.126;5.596;2023-01-26T10:52:18;35.20;;;30.92;;
19521;SDS011;9905;52.126;5.596;2023-01-26T10:54:47;34.45;;;30.98;;
19521;SDS011;9905;52.126;5.596;2023-01-26T10:57:17;34.58;;;31.27;;
19521;SDS011;9905;52.126;5.596;2023-01-26T10:59:49;37.05;;;32.00;;
19521;SDS011;9905;52.126;5.596;2023-01-26T11:02:21;32.03;;;29.17;;
19521;SDS011;9905;52.126;5.596;2023-01-26T11:05:13;37.20;;;33.47;;
19521;SDS011;9905;52.126;5.596;2023-01-26T11:07:43;32.42;;;28.88;;
19521;SDS011;9905;52.126;5.596;2023-01-26T11:10:16;35.25;;;30.33;;
19521;SDS011;9905;52.126;5.596;2023-01-26T11:12:44;33.00;;;28.92;;
19521;SDS011;9905;52.126;5.596;2023-01-26T11:15:14;29.70;;;27.02;;
19521;SDS011;9905;52.126;5.596;2023-01-26T11:17:46;35.25;;;29.13;;
19521;SDS011;9905;52.126;5.596;2023-01-26T11:20:27;31.13;;;28.08;;
19521;SDS011;9905;52.126;5.596;2023-01-26T11:23:07;31.73;;;29.45;;
19521;SDS011;9905;52.126;5.596;2023-01-26T11:25:51;31.83;;;28.45;;
19521;SDS011;9905;52.126;5.596;2023-01-26T11:28:34;29.85;;;27.02;;
19521;SDS011;9905;52.126;5.596;2023-01-26T11:31:13;32.05;;;28.80;;
19521;SDS011;9905;52.126;5.596;2023-01-26T11:33:52;33.25;;;29.80;;
19521;SDS011;9905;52.126;5.596;2023-01-26T11:36:33;31.40;;;28.08;;
19521;SDS011;9905;52.126;5.596;2023-01-26T11:39:09;29.60;;;27.27;;
19521;SDS011;9905;52.126;5.596;2023-01-26T11:41:50;30.60;;;28.42;;
19521;SDS011;9905;52.126;5.596;2023-01-26T11:44:37;26.55;;;24.48;;
19521;SDS011;9905;52.126;5.596;2023-01-26T11:47:23;25.92;;;23.92;;
19521;SDS011;9905;52.126;5.596;2023-01-26T11:50:16;23.42;;;21.40;;
19521;SDS011;9905;52.126;5.596;2023-01-26T11:52:56;23.90;;;22.25;;
19521;SDS011;9905;52.126;5.596;2023-01-26T11:55:37;23.48;;;22.17;;
19521;SDS011;9905;52.126;5.596;2023-01-26T11:58:20;22.80;;;20.88;;
19521;SDS011;9905;52.126;5.596;2023-01-26T12:00:55;21.83;;;20.13;;
19521;SDS011;9905;52.126;5.596;2023-01-26T12:03:26;21.23;;;17.42;;
19521;SDS011;9905;52.126;5.596;2023-01-26T12:06:00;19.17;;;17.73;;
19521;SDS011;9905;52.126;5.596;2023-01-26T12:08:32;18.75;;;17.63;;
19521;SDS011;9905;52.126;5.596;2023-01-26T12:11:05;20.38;;;18.75;;
19521;SDS011;9905;52.126;5.596;2023-01-26T12:13:49;17.83;;;16.23;;
19521;SDS011;9905;52.126;5.596;2023-01-26T12:16:27;16.23;;;14.98;;
19521;SDS011;9905;52.126;5.596;2023-01-26T12:19:05;14.38;;;13.10;;
19521;SDS011;9905;52.126;5.596;2023-01-26T12:21:41;14.95;;;13.88;;
19521;SDS011;9905;52.126;5.596;2023-01-26T12:24:11;14.75;;;13.63;;
19521;SDS011;9905;52.126;5.596;2023-01-26T12:26:46;14.07;;;12.65;;
19521;SDS011;9905;52.126;5.596;2023-01-26T12:29:16;13.85;;;11.10;;
19521;SDS011;9905;52.126;5.596;2023-01-26T12:31:47;12.25;;;11.05;;
19521;SDS011;9905;52.126;5.596;2023-01-26T12:34:18;15.63;;;11.50;;
19521;SDS011;9905;52.126;5.596;2023-01-26T12:36:51;13.32;;;11.32;;
19521;SDS011;9905;52.126;5.596;2023-01-26T12:39:30;15.98;;;10.93;;
19521;SDS011;9905;52.126;5.596;2023-01-26T12:42:02;11.45;;;10.52;;
19521;SDS011;9905;52.126;5.596;2023-01-26T12:44:42;11.55;;;9.15;;
19521;SDS011;9905;52.126;5.596;2023-01-26T12:47:13;10.50;;;9.00;;
19521;SDS011;9905;52.126;5.596;2023-01-26T12:49:45;10.48;;;8.27;;
19521;SDS011;9905;52.126;5.596;2023-01-26T12:52:20;9.50;;;8.60;;
19521;SDS011;9905;52.126;5.596;2023-01-26T12:54:53;8.52;;;7.65;;
19521;SDS011;9905;52.126;5.596;2023-01-26T12:57:25;13.35;;;8.18;;
19521;SDS011;9905;52.126;5.596;2023-01-26T13:00:00;7.95;;;7.25;;
19521;SDS011;9905;52.126;5.596;2023-01-26T13:02:30;14.10;;;7.82;;
19521;SDS011;9905;52.126;5.596;2023-01-26T13:05:00;7.53;;;6.82;;
19521;SDS011;9905;52.126;5.596;2023-01-26T13:07:30;10.55;;;7.82;;
19521;SDS011;9905;52.126;5.596;2023-01-26T13:12:55;9.00;;;8.25;;
19521;SDS011;9905;52.126;5.596;2023-01-26T13:15:24;7.43;;;6.43;;
19521;SDS011;9905;52.126;5.596;2023-01-26T13:17:53;11.57;;;7.20;;
19521;SDS011;9905;52.126;5.596;2023-01-26T13:20:39;7.32;;;6.63;;
19521;SDS011;9905;52.126;5.596;2023-01-26T13:28:48;6.38;;;5.80;;
19521;SDS011;9905;52.126;5.596;2023-01-26T13:31:29;6.68;;;6.07;;
19521;SDS011;9905;52.126;5.596;2023-01-26T13:33:58;6.00;;;5.43;;
19521;SDS011;9905;52.126;5.596;2023-01-26T13:36:29;8.38;;;4.90;;
19521;SDS011;9905;52.126;5.596;2023-01-26T13:39:02;12.52;;;5.40;;
19521;SDS011;9905;52.126;5.596;2023-01-26T13:41:42;5.75;;;5.40;;
19521;SDS011;9905;52.126;5.596;2023-01-26T13:44:12;7.05;;;5.18;;
19521;SDS011;9905;52.126;5.596;2023-01-26T13:46:44;5.65;;;5.05;;
19521;SDS011;9905;52.126;5.596;2023-01-26T13:49:23;7.90;;;4.75;;
19521;SDS011;9905;52.126;5.596;2023-01-26T13:51:51;8.43;;;5.55;;
19521;SDS011;9905;52.126;5.596;2023-01-26T13:54:20;8.07;;;5.45;;
19521;SDS011;9905;52.126;5.596;2023-01-26T13:56:58;6.18;;;5.07;;
19521;SDS011;9905;52.126;5.596;2023-01-26T13:59:27;6.80;;;4.70;;
19521;SDS011;9905;52.126;5.596;2023-01-26T14:01:54;5.50;;;4.80;;
19521;SDS011;9905;52.126;5.596;2023-01-26T14:04:22;5.97;;;5.43;;
19521;SDS011;9905;52.126;5.596;2023-01-26T14:06:51;7.35;;;4.88;;
19521;SDS011;9905;52.126;5.596;2023-01-26T14:09:22;9.95;;;5.53;;
19521;SDS011;9905;52.126;5.596;2023-01-26T14:11:54;6.93;;;6.32;;
19521;SDS011;9905;52.126;5.596;2023-01-26T14:14:24;6.57;;;5.93;;
19521;SDS011;9905;52.126;5.596;2023-01-26T14:16:52;6.63;;;6.15;;
19521;SDS011;9905;52.126;5.596;2023-01-26T14:19:21;6.43;;;5.50;;
19521;SDS011;9905;52.126;5.596;2023-01-26T14:21:49;6.10;;;5.63;;
19521;SDS011;9905;52.126;5.596;2023-01-26T14:24:18;6.10;;;5.70;;
19521;SDS011;9905;52.126;5.596;2023-01-26T14:26:52;8.65;;;5.93;;
19521;SDS011;9905;52.126;5.596;2023-01-26T14:29:19;6.53;;;5.78;;
19521;SDS011;9905;52.126;5.596;2023-01-26T14:31:48;7.20;;;6.13;;
19521;SDS011;9905;52.126;5.596;2023-01-26T14:34:17;10.68;;;6.38;;
19521;SDS011;9905;52.126;5.596;2023-01-26T14:36:46;6.70;;;6.10;;
19521;SDS011;9905;52.126;5.596;2023-01-26T14:39:16;6.90;;;6.30;;
19521;SDS011;9905;52.126;5.596;2023-01-26T14:41:46;6.63;;;6.10;;
19521;SDS011;9905;52.126;5.596;2023-01-26T14:44:14;6.75;;;6.13;;
19521;SDS011;9905;52.126;5.596;2023-01-26T14:46:47;6.65;;;6.10;;
19521;SDS011;9905;52.126;5.596;2023-01-26T14:49:19;9.77;;;6.57;;
19521;SDS011;9905;52.126;5.596;2023-01-26T14:51:51;14.73;;;6.35;;
19521;SDS011;9905;52.126;5.596;2023-01-26T14:54:23;6.70;;;6.30;;
19521;SDS011;9905;52.126;5.596;2023-01-26T14:56:55;6.63;;;6.25;;
19521;SDS011;9905;52.126;5.596;2023-01-26T14:59:24;6.47;;;6.18;;
19521;SDS011;9905;52.126;5.596;2023-01-26T15:02:02;6.45;;;5.93;;
19521;SDS011;9905;52.126;5.596;2023-01-26T15:04:38;6.72;;;6.13;;
19521;SDS011;9905;52.126;5.596;2023-01-26T15:10:00;8.02;;;5.85;;